sensor_id;sensor_type;location;lat;lon;timestamp;pressure;altitude;pressure_sealevel;temperature;humidity
76519;BME280;67029;51.054;13.798;2023-04-24T00:00:31;99074.91;;;17.29;54.04
76519;BME280;67029;51.054;13.798;2023-04-24T00:03:02;99072.77;;;17.33;54.12
76519;BME280;67029;51.054;13.798;2023-04-24T00:05:32;99066.97;;;17.37;54.12
76519;BME280;67029;51.054;13.798;2023-04-24T00:08:02;99061.39;;;17.37;54.01
76519;BME280;67029;51.054;13.798;2023-04-24T00:10:32;99062.09;;;17.38;54.03
76519;BME280;67029;51.054;13.798;2023-04-24T00:13:02;99062.28;;;17.37;54.11
76519;BME280;67029;51.054;13.798;2023-04-24T00:15:32;99063.62;;;17.33;54.15
76519;BME280;67029;51.054;13.798;2023-04-24T00:18:02;99060.66;;;17.30;54.04
76519;BME280;67029;51.054;13.798;2023-04-24T00:20:33;99064.83;;;17.29;54.27
76519;BME280;67029;51.054;13.798;2023-04-24T00:23:03;99067.96;;;17.26;53.98
76519;BME280;67029;51.054;13.798;2023-04-24T00:25:33;99080.09;;;17.26;54.35
76519;BME280;67029;51.054;13.798;2023-04-24T00:28:03;99095.45;;;17.26;54.78
76519;BME280;67029;51.054;13.798;2023-04-24T00:30:33;99087.00;;;17.22;54.59
76519;BME280;67029;51.054;13.798;2023-04-24T00:33:03;99086.63;;;17.18;54.65
76519;BME280;67029;51.054;13.798;2023-04-24T00:35:33;99087.88;;;17.16;54.67
76519;BME280;67029;51.054;13.798;2023-04-24T00:38:03;99085.91;;;17.12;54.73
76519;BME280;67029;51.054;13.798;2023-04-24T00:40:36;99083.17;;;17.11;54.73
76519;BME280;67029;51.054;13.798;2023-04-24T00:43:04;99085.20;;;17.11;54.90
76519;BME280;67029;51.054;13.798;2023-04-24T00:45:34;99089.11;;;17.10;54.93
76519;BME280;67029;51.054;13.798;2023-04-24T00:48:04;99086.33;;;17.07;54.87
76519;BME280;67029;51.054;13.798;2023-04-24T00:50:36;99078.30;;;16.98;54.96
76519;BME280;67029;51.054;13.798;2023-04-24T00:53:05;99076.70;;;16.96;55.30
76519;BME280;67029;51.054;13.798;2023-04-24T00:55:35;99077.64;;;16.94;55.40
76519;BME280;67029;51.054;13.798;2023-04-24T00:58:05;99071.94;;;16.87;55.18
76519;BME280;67029;51.054;13.798;2023-04-24T01:00:35;99070.28;;;16.89;55.32
76519;BME280;67029;51.054;13.798;2023-04-24T01:03:05;99070.58;;;16.91;55.26
76519;BME280;67029;51.054;13.798;2023-04-24T01:05:36;99065.95;;;16.93;55.08
76519;BME280;67029;51.054;13.798;2023-04-24T01:08:06;99060.78;;;16.91;55.34
76519;BME280;67029;51.054;13.798;2023-04-24T01:10:38;99063.22;;;16.93;55.39
76519;BME280;67029;51.054;13.798;2023-04-24T01:13:10;99059.61;;;16.96;55.25
76519;BME280;67029;51.054;13.798;2023-04-24T01:15:37;99060.95;;;16.98;55.37
76519;BME280;67029;51.054;13.798;2023-04-24T01:18:07;99066.27;;;16.99;55.38
76519;BME280;67029;51.054;13.798;2023-04-24T01:20:39;99069.25;;;17.01;55.38
76519;BME280;67029;51.054;13.798;2023-04-24T01:23:08;99071.17;;;17.00;55.32
76519;BME280;67029;51.054;13.798;2023-04-24T01:25:38;99072.70;;;16.98;55.35
76519;BME280;67029;51.054;13.798;2023-04-24T01:28:08;99079.39;;;17.01;55.55
76519;BME280;67029;51.054;13.798;2023-04-24T01:30:38;99085.22;;;17.02;55.31
76519;BME280;67029;51.054;13.798;2023-04-24T01:33:08;99078.90;;;17.02;55.44
76519;BME280;67029;51.054;13.798;2023-04-24T01:35:38;99075.23;;;17.03;55.48
76519;BME280;67029;51.054;13.798;2023-04-24T01:38:08;99080.44;;;16.98;55.34
76519;BME280;67029;51.054;13.798;2023-04-24T01:40:38;99079.74;;;16.96;55.49
76519;BME280;67029;51.054;13.798;2023-04-24T01:43:08;99073.47;;;16.92;56.83
76519;BME280;67029;51.054;13.798;2023-04-24T01:45:38;99073.62;;;16.83;56.27
76519;BME280;67029;51.054;13.798;2023-04-24T01:48:09;99069.69;;;16.83;56.08
76519;BME280;67029;51.054;13.798;2023-04-24T01:50:39;99070.50;;;16.84;55.97
76519;BME280;67029;51.054;13.798;2023-04-24T01:53:09;99067.60;;;16.73;56.41
76519;BME280;67029;51.054;13.798;2023-04-24T01:55:39;99067.74;;;16.76;56.24
76519;BME280;67029;51.054;13.798;2023-04-24T01:58:09;99071.64;;;16.80;56.01
76519;BME280;67029;51.054;13.798;2023-04-24T02:00:39;99069.34;;;16.85;55.97
76519;BME280;67029;51.054;13.798;2023-04-24T02:03:09;99070.14;;;16.87;55.88
76519;BME280;67029;51.054;13.798;2023-04-24T02:05:39;99069.64;;;16.81;56.10
76519;BME280;67029;51.054;13.798;2023-04-24T02:08:09;99066.66;;;16.72;56.39
76519;BME280;67029;51.054;13.798;2023-04-24T02:10:39;99064.38;;;16.76;56.42
76519;BME280;67029;51.054;13.798;2023-04-24T02:13:10;99062.67;;;16.79;56.25
76519;BME280;67029;51.054;13.798;2023-04-24T02:15:39;99061.73;;;16.84;56.17
76519;BME280;67029;51.054;13.798;2023-04-24T02:18:09;99058.19;;;16.84;55.96
76519;BME280;67029;51.054;13.798;2023-04-24T02:20:40;99063.77;;;16.90;55.92
76519;BME280;67029;51.054;13.798;2023-04-24T02:23:10;99061.88;;;16.94;55.84
76519;BME280;67029;51.054;13.798;2023-04-24T02:25:40;99058.69;;;16.99;55.82
76519;BME280;67029;51.054;13.798;2023-04-24T02:28:10;99061.20;;;17.01;55.77
76519;BME280;67029;51.054;13.798;2023-04-24T02:30:40;99067.69;;;17.04;55.79
76519;BME280;67029;51.054;13.798;2023-04-24T02:33:10;99066.44;;;17.02;55.75
76519;BME280;67029;51.054;13.798;2023-04-24T02:35:40;99068.64;;;17.04;55.64
76519;BME280;67029;51.054;13.798;2023-04-24T02:38:10;99070.75;;;17.04;55.69
76519;BME280;67029;51.054;13.798;2023-04-24T02:40:40;99071.02;;;17.05;55.78
76519;BME280;67029;51.054;13.798;2023-04-24T02:43:10;99071.94;;;17.05;55.74
76519;BME280;67029;51.054;13.798;2023-04-24T02:45:40;99067.93;;;17.07;55.51
76519;BME280;67029;51.054;13.798;2023-04-24T02:48:10;99064.34;;;16.98;55.67
76519;BME280;67029;51.054;13.798;2023-04-24T02:50:40;99066.23;;;16.96;55.91
76519;BME280;67029;51.054;13.798;2023-04-24T02:53:10;99061.09;;;16.98;55.84
76519;BME280;67029;51.054;13.798;2023-04-24T02:55:40;99060.95;;;16.94;56.01
76519;BME280;67029;51.054;13.798;2023-04-24T02:58:10;99061.09;;;16.94;55.87
76519;BME280;67029;51.054;13.798;2023-04-24T03:00:40;99064.23;;;16.98;55.92
76519;BME280;67029;51.054;13.798;2023-04-24T03:03:10;99063.81;;;16.99;55.97
76519;BME280;67029;51.054;13.798;2023-04-24T03:05:40;99060.67;;;16.99;55.72
76519;BME280;67029;51.054;13.798;2023-04-24T03:08:11;99055.06;;;16.92;55.92
76519;BME280;67029;51.054;13.798;2023-04-24T03:10:41;99060.79;;;16.94;55.77
76519;BME280;67029;51.054;13.798;2023-04-24T03:13:11;99059.77;;;16.96;55.92
76519;BME280;67029;51.054;13.798;2023-04-24T03:15:41;99063.00;;;16.98;55.91
76519;BME280;67029;51.054;13.798;2023-04-24T03:18:11;99056.09;;;16.95;55.69
76519;BME280;67029;51.054;13.798;2023-04-24T03:20:41;99058.72;;;16.96;55.79
76519;BME280;67029;51.054;13.798;2023-04-24T03:23:11;99058.20;;;16.93;55.78
76519;BME280;67029;51.054;13.798;2023-04-24T03:25:41;99058.02;;;16.84;56.08
76519;BME280;67029;51.054;13.798;2023-04-24T03:28:11;99057.73;;;16.81;56.24
76519;BME280;67029;51.054;13.798;2023-04-24T03:30:41;99054.77;;;16.82;56.34
76519;BME280;67029;51.054;13.798;2023-04-24T03:33:11;99056.66;;;16.83;56.30
76519;BME280;67029;51.054;13.798;2023-04-24T03:35:41;99062.02;;;16.83;56.13
76519;BME280;67029;51.054;13.798;2023-04-24T03:38:11;99058.56;;;16.84;56.22
76519;BME280;67029;51.054;13.798;2023-04-24T03:40:41;99065.40;;;16.86;56.23
76519;BME280;67029;51.054;13.798;2023-04-24T03:43:11;99070.64;;;16.88;56.25
76519;BME280;67029;51.054;13.798;2023-04-24T03:45:41;99072.08;;;16.88;56.39
76519;BME280;67029;51.054;13.798;2023-04-24T03:48:11;99071.45;;;16.88;56.47
76519;BME280;67029;51.054;13.798;2023-04-24T03:50:41;99075.09;;;16.87;56.27
76519;BME280;67029;51.054;13.798;2023-04-24T03:53:11;99077.77;;;16.88;56.19
76519;BME280;67029;51.054;13.798;2023-04-24T03:55:41;99076.55;;;16.87;56.16
76519;BME280;67029;51.054;13.798;2023-04-24T03:58:11;99080.16;;;16.85;56.11
76519;BME280;67029;51.054;13.798;2023-04-24T04:00:41;99083.67;;;16.85;56.06
76519;BME280;67029;51.054;13.798;2023-04-24T04:03:11;99087.55;;;16.81;56.05
76519;BME280;67029;51.054;13.798;2023-04-24T04:05:41;99089.30;;;16.82;55.94
76519;BME280;67029;51.054;13.798;2023-04-24T04:08:11;99092.72;;;16.85;56.02
76519;BME280;67029;51.054;13.798;2023-04-24T04:10:41;99097.02;;;16.87;55.93
76519;BME280;67029;51.054;13.798;2023-04-24T04:13:11;99096.40;;;16.89;55.94
76519;BME280;67029;51.054;13.798;2023-04-24T04:15:41;99095.20;;;16.89;56.01
76519;BME280;67029;51.054;13.798;2023-04-24T04:18:11;99095.95;;;16.90;55.90
76519;BME280;67029;51.054;13.798;2023-04-24T04:20:42;99097.72;;;16.90;55.59
76519;BME280;67029;51.054;13.798;2023-04-24T04:23:11;99092.55;;;16.92;55.58
76519;BME280;67029;51.054;13.798;2023-04-24T04:25:41;99094.01;;;16.96;55.36
76519;BME280;67029;51.054;13.798;2023-04-24T04:28:11;99097.61;;;16.98;55.24
76519;BME280;67029;51.054;13.798;2023-04-24T04:30:42;99100.48;;;17.01;55.25
76519;BME280;67029;51.054;13.798;2023-04-24T04:33:12;99099.69;;;17.10;54.87
76519;BME280;67029;51.054;13.798;2023-04-24T04:35:42;99096.53;;;17.14;54.64
76519;BME280;67029;51.054;13.798;2023-04-24T04:38:12;99102.24;;;17.14;54.45
76519;BME280;67029;51.054;13.798;2023-04-24T04:40:43;99099.27;;;17.14;54.33
76519;BME280;67029;51.054;13.798;2023-04-24T04:43:12;99095.14;;;17.20;54.11
76519;BME280;67029;51.054;13.798;2023-04-24T04:45:42;99091.77;;;17.26;53.94
76519;BME280;67029;51.054;13.798;2023-04-24T04:48:13;99087.53;;;17.33;53.67
76519;BME280;67029;51.054;13.798;2023-04-24T04:50:43;99087.81;;;17.38;53.47
76519;BME280;67029;51.054;13.798;2023-04-24T04:53:13;99088.55;;;17.40;53.28
76519;BME280;67029;51.054;13.798;2023-04-24T04:55:43;99087.70;;;17.43;53.17
76519;BME280;67029;51.054;13.798;2023-04-24T04:58:13;99094.94;;;17.43;53.14
76519;BME280;67029;51.054;13.798;2023-04-24T05:00:43;99094.64;;;17.45;53.07
76519;BME280;67029;51.054;13.798;2023-04-24T05:03:13;99094.50;;;17.47;53.03
76519;BME280;67029;51.054;13.798;2023-04-24T05:05:43;99100.28;;;17.51;53.11
76519;BME280;67029;51.054;13.798;2023-04-24T05:08:13;99104.00;;;17.54;52.97
76519;BME280;67029;51.054;13.798;2023-04-24T05:10:43;99107.19;;;17.59;52.84
76519;BME280;67029;51.054;13.798;2023-04-24T05:13:13;99104.70;;;17.61;52.84
76519;BME280;67029;51.054;13.798;2023-04-24T05:15:43;99104.35;;;17.65;52.73
76519;BME280;67029;51.054;13.798;2023-04-24T05:18:13;99107.03;;;17.66;52.59
76519;BME280;67029;51.054;13.798;2023-04-24T05:20:43;99102.89;;;17.61;52.65
76519;BME280;67029;51.054;13.798;2023-04-24T05:23:13;99106.09;;;17.64;52.68
76519;BME280;67029;51.054;13.798;2023-04-24T05:25:43;99101.94;;;17.72;52.45
76519;BME280;67029;51.054;13.798;2023-04-24T05:28:13;99105.34;;;17.74;52.38
76519;BME280;67029;51.054;13.798;2023-04-24T05:30:43;99107.03;;;17.83;52.32
76519;BME280;67029;51.054;13.798;2023-04-24T05:33:13;99112.11;;;17.89;52.06
76519;BME280;67029;51.054;13.798;2023-04-24T05:35:43;99109.91;;;17.88;51.96
76519;BME280;67029;51.054;13.798;2023-04-24T05:38:14;99107.69;;;17.95;51.86
76519;BME280;67029;51.054;13.798;2023-04-24T05:40:44;99105.80;;;17.94;51.63
76519;BME280;67029;51.054;13.798;2023-04-24T05:43:14;99108.09;;;17.98;51.53
76519;BME280;67029;51.054;13.798;2023-04-24T05:48:14;99108.66;;;18.00;51.35
76519;BME280;67029;51.054;13.798;2023-04-24T05:50:45;99106.91;;;18.13;51.14
76519;BME280;67029;51.054;13.798;2023-04-24T05:53:15;99104.65;;;18.23;50.79
76519;BME280;67029;51.054;13.798;2023-04-24T05:55:45;99107.27;;;18.31;50.68
76519;BME280;67029;51.054;13.798;2023-04-24T05:58:15;99113.02;;;18.40;50.45
76519;BME280;67029;51.054;13.798;2023-04-24T06:00:45;99110.98;;;18.41;50.33
76519;BME280;67029;51.054;13.798;2023-04-24T06:03:15;99119.08;;;18.44;50.37
76519;BME280;67029;51.054;13.798;2023-04-24T06:05:45;99112.77;;;18.54;50.23
76519;BME280;67029;51.054;13.798;2023-04-24T06:08:16;99120.33;;;18.66;49.91
76519;BME280;67029;51.054;13.798;2023-04-24T06:10:45;99117.95;;;18.76;49.76
76519;BME280;67029;51.054;13.798;2023-04-24T06:13:15;99114.06;;;18.85;49.57
76519;BME280;67029;51.054;13.798;2023-04-24T06:18:16;99112.67;;;19.25;49.12
76519;BME280;67029;51.054;13.798;2023-04-24T06:20:46;99112.64;;;19.42;48.71
76519;BME280;67029;51.054;13.798;2023-04-24T06:23:17;99116.34;;;19.47;48.55
76519;BME280;67029;51.054;13.798;2023-04-24T06:25:47;99118.10;;;19.53;48.42
76519;BME280;67029;51.054;13.798;2023-04-24T06:28:17;99117.23;;;19.61;47.57
76519;BME280;67029;51.054;13.798;2023-04-24T06:30:47;99116.68;;;19.65;47.53
76519;BME280;67029;51.054;13.798;2023-04-24T06:33:17;99122.17;;;19.66;47.72
76519;BME280;67029;51.054;13.798;2023-04-24T06:35:47;99115.36;;;19.72;47.12
76519;BME280;67029;51.054;13.798;2023-04-24T06:38:17;99120.72;;;19.68;46.04
76519;BME280;67029;51.054;13.798;2023-04-24T06:40:47;99122.30;;;19.63;45.75
76519;BME280;67029;51.054;13.798;2023-04-24T06:43:17;99119.66;;;19.54;46.02
76519;BME280;67029;51.054;13.798;2023-04-24T06:45:47;99115.45;;;19.63;45.62
76519;BME280;67029;51.054;13.798;2023-04-24T06:48:17;99116.47;;;19.67;45.88
76519;BME280;67029;51.054;13.798;2023-04-24T06:50:47;99118.68;;;19.71;46.10
76519;BME280;67029;51.054;13.798;2023-04-24T06:53:17;99117.39;;;19.78;46.13
76519;BME280;67029;51.054;13.798;2023-04-24T06:55:47;99123.34;;;19.88;45.81
76519;BME280;67029;51.054;13.798;2023-04-24T07:00:48;99127.01;;;20.25;45.11
76519;BME280;67029;51.054;13.798;2023-04-24T07:03:18;99126.50;;;20.41;44.77
76519;BME280;67029;51.054;13.798;2023-04-24T07:05:48;99137.24;;;20.56;43.42
76519;BME280;67029;51.054;13.798;2023-04-24T07:08:18;99130.16;;;20.53;43.58
76519;BME280;67029;51.054;13.798;2023-04-24T07:10:49;99140.22;;;20.61;42.83
76519;BME280;67029;51.054;13.798;2023-04-24T07:13:19;99129.80;;;20.56;42.57
76519;BME280;67029;51.054;13.798;2023-04-24T07:15:49;99130.11;;;20.58;42.94
76519;BME280;67029;51.054;13.798;2023-04-24T07:18:20;99132.58;;;20.62;43.26
76519;BME280;67029;51.054;13.798;2023-04-24T07:20:49;99137.02;;;20.64;43.38
76519;BME280;67029;51.054;13.798;2023-04-24T07:23:20;99136.98;;;20.74;42.48
76519;BME280;67029;51.054;13.798;2023-04-24T07:25:50;99137.24;;;20.78;42.52
76519;BME280;67029;51.054;13.798;2023-04-24T07:28:19;99132.75;;;20.85;42.04
76519;BME280;67029;51.054;13.798;2023-04-24T07:30:50;99137.66;;;20.86;42.21
76519;BME280;67029;51.054;13.798;2023-04-24T07:33:20;99135.48;;;20.92;41.93
76519;BME280;67029;51.054;13.798;2023-04-24T07:35:50;99138.62;;;20.84;41.73
76519;BME280;67029;51.054;13.798;2023-04-24T07:38:20;99137.80;;;20.82;41.82
76519;BME280;67029;51.054;13.798;2023-04-24T07:40:50;99138.91;;;20.87;41.92
76519;BME280;67029;51.054;13.798;2023-04-24T07:43:20;99143.33;;;20.98;42.19
76519;BME280;67029;51.054;13.798;2023-04-24T07:45:51;99145.77;;;21.08;41.77
76519;BME280;67029;51.054;13.798;2023-04-24T07:48:21;99148.79;;;21.15;41.26
76519;BME280;67029;51.054;13.798;2023-04-24T07:50:50;99146.62;;;21.20;41.39
76519;BME280;67029;51.054;13.798;2023-04-24T07:53:21;99144.98;;;21.25;41.60
76519;BME280;67029;51.054;13.798;2023-04-24T07:55:51;99146.88;;;21.33;41.49
76519;BME280;67029;51.054;13.798;2023-04-24T07:58:21;99145.42;;;21.48;40.80
76519;BME280;67029;51.054;13.798;2023-04-24T08:00:51;99154.18;;;21.56;41.18
76519;BME280;67029;51.054;13.798;2023-04-24T08:03:21;99150.91;;;21.58;40.99
76519;BME280;67029;51.054;13.798;2023-04-24T08:05:51;99155.45;;;21.56;40.75
76519;BME280;67029;51.054;13.798;2023-04-24T08:08:22;99156.22;;;21.63;41.08
76519;BME280;67029;51.054;13.798;2023-04-24T08:10:51;99155.84;;;21.75;40.97
76519;BME280;67029;51.054;13.798;2023-04-24T08:13:21;99156.40;;;21.91;41.05
76519;BME280;67029;51.054;13.798;2023-04-24T08:15:51;99150.88;;;22.02;40.72
76519;BME280;67029;51.054;13.798;2023-04-24T08:18:22;99154.39;;;22.14;40.36
76519;BME280;67029;51.054;13.798;2023-04-24T08:20:52;99156.57;;;22.24;39.46
76519;BME280;67029;51.054;13.798;2023-04-24T08:23:22;99153.36;;;22.14;39.09
76519;BME280;67029;51.054;13.798;2023-04-24T08:25:52;99154.48;;;22.10;39.95
76519;BME280;67029;51.054;13.798;2023-04-24T08:28:22;99156.20;;;22.10;39.35
76519;BME280;67029;51.054;13.798;2023-04-24T08:30:52;99158.68;;;22.03;38.73
76519;BME280;67029;51.054;13.798;2023-04-24T08:33:23;99154.19;;;22.02;38.55
76519;BME280;67029;51.054;13.798;2023-04-24T08:35:53;99153.86;;;22.03;38.66
76519;BME280;67029;51.054;13.798;2023-04-24T08:38:23;99158.02;;;21.97;38.67
76519;BME280;67029;51.054;13.798;2023-04-24T08:40:53;99156.91;;;21.92;38.91
76519;BME280;67029;51.054;13.798;2023-04-24T08:43:25;99155.26;;;21.84;39.15
76519;BME280;67029;51.054;13.798;2023-04-24T08:45:55;99158.88;;;21.83;38.51
76519;BME280;67029;51.054;13.798;2023-04-24T08:48:26;99161.80;;;21.74;38.95
76519;BME280;67029;51.054;13.798;2023-04-24T08:50:57;99158.62;;;21.69;38.63
76519;BME280;67029;51.054;13.798;2023-04-24T08:53:26;99156.56;;;21.62;38.40
76519;BME280;67029;51.054;13.798;2023-04-24T08:56:01;99156.44;;;21.60;38.05
76519;BME280;67029;51.054;13.798;2023-04-24T08:58:27;99159.96;;;21.35;38.89
76519;BME280;67029;51.054;13.798;2023-04-24T09:00:58;99159.77;;;21.32;39.06
76519;BME280;67029;51.054;13.798;2023-04-24T09:03:28;99157.75;;;21.30;38.93
76519;BME280;67029;51.054;13.798;2023-04-24T09:05:59;99161.45;;;21.36;38.63
76519;BME280;67029;51.054;13.798;2023-04-24T09:08:29;99161.66;;;21.43;38.58
76519;BME280;67029;51.054;13.798;2023-04-24T09:10:59;99156.05;;;21.45;37.93
76519;BME280;67029;51.054;13.798;2023-04-24T09:13:30;99162.19;;;21.47;38.10
76519;BME280;67029;51.054;13.798;2023-04-24T09:16:00;99162.76;;;21.56;37.75
76519;BME280;67029;51.054;13.798;2023-04-24T09:18:30;99162.42;;;21.74;36.92
76519;BME280;67029;51.054;13.798;2023-04-24T09:21:07;99168.00;;;21.85;36.46
76519;BME280;67029;51.054;13.798;2023-04-24T09:23:32;99164.28;;;21.85;36.83
76519;BME280;67029;51.054;13.798;2023-04-24T09:26:03;99168.64;;;21.97;36.86
76519;BME280;67029;51.054;13.798;2023-04-24T09:28:35;99160.23;;;22.06;37.11
76519;BME280;67029;51.054;13.798;2023-04-24T09:31:11;99160.41;;;22.17;37.02
76519;BME280;67029;51.054;13.798;2023-04-24T09:33:33;99158.95;;;22.28;37.06
76519;BME280;67029;51.054;13.798;2023-04-24T09:36:04;99159.45;;;22.43;36.95
76519;BME280;67029;51.054;13.798;2023-04-24T09:38:38;99164.62;;;22.50;36.76
76519;BME280;67029;51.054;13.798;2023-04-24T09:41:06;99173.72;;;22.55;36.01
76519;BME280;67029;51.054;13.798;2023-04-24T09:43:35;99159.28;;;22.46;35.71
76519;BME280;67029;51.054;13.798;2023-04-24T09:46:07;99168.64;;;22.45;36.67
76519;BME280;67029;51.054;13.798;2023-04-24T09:48:36;99164.92;;;22.56;35.96
76519;BME280;67029;51.054;13.798;2023-04-24T09:51:06;99161.05;;;22.58;35.60
76519;BME280;67029;51.054;13.798;2023-04-24T09:53:36;99168.50;;;22.55;36.10
76519;BME280;67029;51.054;13.798;2023-04-24T09:56:09;99167.33;;;22.54;36.22
76519;BME280;67029;51.054;13.798;2023-04-24T09:58:37;99165.38;;;22.49;36.10
76519;BME280;67029;51.054;13.798;2023-04-24T10:01:07;99166.50;;;22.40;35.75
76519;BME280;67029;51.054;13.798;2023-04-24T10:03:37;99166.77;;;22.35;35.70
76519;BME280;67029;51.054;13.798;2023-04-24T10:06:07;99165.59;;;22.27;35.51
76519;BME280;67029;51.054;13.798;2023-04-24T10:08:37;99182.39;;;22.24;35.71
76519;BME280;67029;51.054;13.798;2023-04-24T10:11:10;99161.78;;;22.23;35.71
76519;BME280;67029;51.054;13.798;2023-04-24T10:13:37;99168.84;;;22.15;35.90
76519;BME280;67029;51.054;13.798;2023-04-24T10:16:08;99165.98;;;22.06;36.15
76519;BME280;67029;51.054;13.798;2023-04-24T10:18:39;99171.12;;;22.02;36.51
76519;BME280;67029;51.054;13.798;2023-04-24T10:21:08;99167.86;;;22.04;36.64
76519;BME280;67029;51.054;13.798;2023-04-24T10:23:56;99161.92;;;22.09;36.65
76519;BME280;67029;51.054;13.798;2023-04-24T10:26:09;99152.27;;;22.20;36.29
76519;BME280;67029;51.054;13.798;2023-04-24T10:28:41;99153.36;;;22.27;36.35
76519;BME280;67029;51.054;13.798;2023-04-24T10:31:10;99154.30;;;22.30;36.20
76519;BME280;67029;51.054;13.798;2023-04-24T10:33:42;99156.31;;;22.47;36.24
76519;BME280;67029;51.054;13.798;2023-04-24T10:36:13;99154.47;;;22.68;35.22
76519;BME280;67029;51.054;13.798;2023-04-24T10:38:43;99156.38;;;22.80;35.01
76519;BME280;67029;51.054;13.798;2023-04-24T10:41:13;99157.37;;;22.92;34.87
76519;BME280;67029;51.054;13.798;2023-04-24T10:43:43;99156.31;;;23.06;34.80
76519;BME280;67029;51.054;13.798;2023-04-24T10:46:21;99145.86;;;23.25;34.90
76519;BME280;67029;51.054;13.798;2023-04-24T10:48:52;99149.98;;;23.41;34.66
76519;BME280;67029;51.054;13.798;2023-04-24T10:51:17;99151.61;;;23.36;33.36
76519;BME280;67029;51.054;13.798;2023-04-24T10:53:45;99149.19;;;23.20;34.27
76519;BME280;67029;51.054;13.798;2023-04-24T10:56:18;99158.38;;;23.14;33.79
76519;BME280;67029;51.054;13.798;2023-04-24T10:58:50;99151.28;;;22.94;34.35
76519;BME280;67029;51.054;13.798;2023-04-24T11:01:29;99147.91;;;22.97;34.67
76519;BME280;67029;51.054;13.798;2023-04-24T11:04:09;99145.59;;;22.88;34.99
76519;BME280;67029;51.054;13.798;2023-04-24T11:06:28;99149.09;;;22.78;35.13
76519;BME280;67029;51.054;13.798;2023-04-24T11:08:48;99152.48;;;22.84;34.86
76519;BME280;67029;51.054;13.798;2023-04-24T11:11:18;99159.61;;;22.87;34.42
76519;BME280;67029;51.054;13.798;2023-04-24T11:14:02;99156.94;;;22.79;34.54
76519;BME280;67029;51.054;13.798;2023-04-24T11:16:32;99157.64;;;22.51;34.98
76519;BME280;67029;51.054;13.798;2023-04-24T11:18:59;99161.92;;;22.31;35.39
76519;BME280;67029;51.054;13.798;2023-04-24T11:21:20;99154.19;;;22.13;35.85
76519;BME280;67029;51.054;13.798;2023-04-24T11:23:49;99169.20;;;21.95;36.08
76519;BME280;67029;51.054;13.798;2023-04-24T11:26:21;99164.09;;;21.87;36.43
76519;BME280;67029;51.054;13.798;2023-04-24T11:28:50;99164.94;;;21.92;36.38
76519;BME280;67029;51.054;13.798;2023-04-24T11:31:39;99173.28;;;21.98;36.63
76519;BME280;67029;51.054;13.798;2023-04-24T11:33:50;99171.65;;;22.06;36.82
76519;BME280;67029;51.054;13.798;2023-04-24T11:36:20;99175.64;;;22.00;37.10
76519;BME280;67029;51.054;13.798;2023-04-24T11:38:50;99176.16;;;22.10;37.24
76519;BME280;67029;51.054;13.798;2023-04-24T11:41:22;99177.22;;;22.16;36.72
76519;BME280;67029;51.054;13.798;2023-04-24T11:43:54;99175.38;;;22.19;36.67
76519;BME280;67029;51.054;13.798;2023-04-24T11:46:22;99169.14;;;22.26;36.67
76519;BME280;67029;51.054;13.798;2023-04-24T11:48:55;99168.11;;;22.44;36.62
76519;BME280;67029;51.054;13.798;2023-04-24T11:51:22;99164.69;;;22.68;36.23
76519;BME280;67029;51.054;13.798;2023-04-24T11:53:55;99157.47;;;22.84;36.17
76519;BME280;67029;51.054;13.798;2023-04-24T11:56:24;99154.60;;;23.09;35.70
76519;BME280;67029;51.054;13.798;2023-04-24T11:58:55;99168.69;;;23.26;34.83
76519;BME280;67029;51.054;13.798;2023-04-24T12:01:25;99152.97;;;23.37;35.02
76519;BME280;67029;51.054;13.798;2023-04-24T12:03:59;99157.75;;;23.47;34.90
76519;BME280;67029;51.054;13.798;2023-04-24T12:06:25;99150.36;;;23.67;34.47
76519;BME280;67029;51.054;13.798;2023-04-24T12:08:55;99147.14;;;23.79;34.24
76519;BME280;67029;51.054;13.798;2023-04-24T12:11:25;99151.72;;;24.05;33.96
76519;BME280;67029;51.054;13.798;2023-04-24T12:13:56;99155.80;;;24.18;32.83
76519;BME280;67029;51.054;13.798;2023-04-24T12:16:26;99153.44;;;23.90;33.00
76519;BME280;67029;51.054;13.798;2023-04-24T12:18:57;99160.69;;;23.75;33.11
76519;BME280;67029;51.054;13.798;2023-04-24T12:26:28;99165.80;;;23.14;31.64
76519;BME280;67029;51.054;13.798;2023-04-24T12:29:01;99163.22;;;22.91;32.08
76519;BME280;67029;51.054;13.798;2023-04-24T12:31:28;99169.22;;;22.67;31.67
76519;BME280;67029;51.054;13.798;2023-04-24T12:33:58;99176.80;;;22.47;31.86
76519;BME280;67029;51.054;13.798;2023-04-24T12:36:29;99172.39;;;22.35;31.93
76519;BME280;67029;51.054;13.798;2023-04-24T12:38:59;99165.19;;;22.49;31.99
76519;BME280;67029;51.054;13.798;2023-04-24T12:41:30;99166.58;;;22.77;31.29
76519;BME280;67029;51.054;13.798;2023-04-24T12:43:59;99158.91;;;23.05;31.17
76519;BME280;67029;51.054;13.798;2023-04-24T12:46:29;99170.52;;;23.13;31.08
76519;BME280;67029;51.054;13.798;2023-04-24T12:48:59;99170.22;;;23.20;30.90
76519;BME280;67029;51.054;13.798;2023-04-24T12:51:29;99164.94;;;23.27;30.78
76519;BME280;67029;51.054;13.798;2023-04-24T12:53:59;99165.45;;;23.38;31.08
76519;BME280;67029;51.054;13.798;2023-04-24T12:56:29;99167.86;;;23.40;31.42
76519;BME280;67029;51.054;13.798;2023-04-24T12:58:59;99168.64;;;23.61;31.37
76519;BME280;67029;51.054;13.798;2023-04-24T13:01:29;99163.79;;;23.75;30.92
76519;BME280;67029;51.054;13.798;2023-04-24T13:03:59;99164.04;;;23.77;30.38
76519;BME280;67029;51.054;13.798;2023-04-24T13:06:30;99168.11;;;23.69;30.48
76519;BME280;67029;51.054;13.798;2023-04-24T13:09:00;99161.11;;;23.63;29.76
76519;BME280;67029;51.054;13.798;2023-04-24T13:11:30;99151.50;;;23.64;29.70
76519;BME280;67029;51.054;13.798;2023-04-24T13:14:00;99153.70;;;23.58;30.17
76519;BME280;67029;51.054;13.798;2023-04-24T13:16:30;99153.73;;;23.66;30.19